Time;durP1;ratioP1;P1;durP2;ratioP2;P2;SDS_P1;SDS_P2;PMS_P1;PMS_P2;Temp;Humidity;BMP_temperature;BMP_pressure;BME280_temperature;BME280_humidity;BME280_pressure;Samples;Min_cycle;Max_cycle;Signal;HPM_P1;HPM_P2
2022/05/04 00:01:18;;;;;;;1.73;0.50;;;7.90;99.90;;;;;;5130478;27;20517;-73
2022/05/04 00:03:44;;;;;;;1.45;0.50;;;7.90;99.90;;;;;;5144680;27;20489;-73
2022/05/04 00:06:10;;;;;;;1.48;0.40;;;7.90;99.90;;;;;;5114316;27;20391;-73
2022/05/04 00:08:39;;;;;;;0.95;0.30;;;7.90;99.90;;;;;;5141924;27;20042;-73
2022/05/04 00:11:06;;;;;;;0.75;0.30;;;7.90;99.90;;;;;;5136940;27;20141;-74
2022/05/04 00:13:32;;;;;;;1.67;0.40;;;7.90;99.90;;;;;;5143041;27;20114;-74
2022/05/04 00:16:01;;;;;;;1.67;0.32;;;8.00;99.90;;;;;;5135601;27;20437;-73
2022/05/04 00:18:28;;;;;;;0.68;0.35;;;8.00;99.90;;;;;;5147905;27;20438;-73
2022/05/04 00:20:54;;;;;;;1.23;0.40;;;8.00;99.90;;;;;;5155410;27;20039;-74
2022/05/04 00:23:19;;;;;;;0.63;0.40;;;8.00;99.90;;;;;;5122883;27;20355;-73
2022/05/04 00:25:45;;;;;;;1.33;0.40;;;8.00;99.90;;;;;;5137570;27;20083;-73
2022/05/04 00:28:11;;;;;;;1.30;0.40;;;8.00;99.90;;;;;;5134463;27;20058;-73
2022/05/04 00:30:36;;;;;;;1.23;0.40;;;7.90;99.90;;;;;;5124926;27;20035;-73
2022/05/04 00:33:02;;;;;;;1.27;0.25;;;7.80;99.90;;;;;;5152731;27;20042;-73
2022/05/04 00:35:28;;;;;;;1.35;0.40;;;7.80;99.90;;;;;;5149273;27;20031;-74
2022/05/04 00:37:54;;;;;;;0.98;0.40;;;7.80;99.90;;;;;;5145167;27;20107;-74
2022/05/04 00:40:19;;;;;;;1.60;0.60;;;7.80;99.90;;;;;;5138292;27;20043;-73
2022/05/04 00:42:45;;;;;;;1.50;0.60;;;7.80;99.90;;;;;;5152230;27;20494;-73
2022/05/04 00:45:10;;;;;;;0.32;0.20;;;7.80;99.90;;;;;;5116996;27;20039;-74
2022/05/04 00:47:36;;;;;;;1.00;0.55;;;7.80;99.90;;;;;;5144877;27;20071;-74
2022/05/04 00:50:04;;;;;;;1.40;0.50;;;7.80;99.90;;;;;;5127935;27;20050;-73
2022/05/04 00:52:34;;;;;;;1.30;0.50;;;7.80;99.90;;;;;;5150941;27;20397;-74
2022/05/04 00:55:01;;;;;;;1.40;0.50;;;7.90;99.90;;;;;;5151608;27;20039;-73
2022/05/04 01:00:13;;;;;;;1.02;0.52;;;7.90;99.90;;;;;;5141237;27;20677;-73
2022/05/04 01:02:40;;;;;;;1.15;0.57;;;7.90;99.90;;;;;;5147415;27;20039;-73
2022/05/04 01:05:10;;;;;;;2.17;0.70;;;7.90;99.90;;;;;;5147667;27;20045;-73
2022/05/04 01:07:37;;;;;;;3.65;1.00;;;7.90;99.90;;;;;;5148754;27;20047;-73
2022/05/04 01:10:07;;;;;;;4.90;1.40;;;7.90;99.90;;;;;;5145327;27;20083;-73
2022/05/04 01:12:33;;;;;;;3.95;1.10;;;7.90;99.90;;;;;;5147845;27;20118;-74
2022/05/04 01:14:59;;;;;;;4.15;0.98;;;7.90;99.90;;;;;;5144381;27;20118;-73
2022/05/04 01:17:27;;;;;;;2.03;0.70;;;7.90;99.90;;;;;;5106828;27;20058;-73
2022/05/04 01:19:55;;;;;;;4.55;0.85;;;7.90;99.90;;;;;;5135225;27;20049;-73
2022/05/04 01:22:25;;;;;;;3.22;0.90;;;7.90;99.90;;;;;;5147944;27;20058;-73
2022/05/04 01:24:51;;;;;;;2.03;0.90;;;7.90;99.90;;;;;;5121825;27;20374;-73
2022/05/04 01:27:17;;;;;;;1.65;0.80;;;7.90;99.90;;;;;;5137491;27;20471;-73
2022/05/04 01:29:43;;;;;;;2.25;0.90;;;7.90;99.90;;;;;;5144463;27;20442;-73
2022/05/04 01:32:09;;;;;;;1.35;0.50;;;7.90;99.90;;;;;;5119751;27;20129;-73
2022/05/04 01:34:34;;;;;;;2.90;0.52;;;7.90;99.90;;;;;;5139123;27;20119;-73
2022/05/04 01:37:01;;;;;;;2.28;0.60;;;7.90;99.90;;;;;;5114770;27;20134;-73
2022/05/04 01:39:27;;;;;;;;;;;7.90;99.90;;;;;;5143149;27;20553;-73
2022/05/04 01:42:05;;;;;;;1.55;0.65;;;7.90;99.90;;;;;;5144601;27;19915;-73
2022/05/04 01:44:33;;;;;;;4.68;0.82;;;7.90;99.90;;;;;;5149477;27;20046;-73
2022/05/04 01:46:59;;;;;;;2.90;0.80;;;7.90;99.90;;;;;;5153030;27;20050;-73
2022/05/04 01:49:25;;;;;;;;;;;7.90;99.90;;;;;;5146618;27;20050;-73
2022/05/04 01:51:50;;;;;;;4.15;1.00;;;7.80;99.90;;;;;;5152163;27;19942;-74
2022/05/04 01:54:16;;;;;;;2.13;0.73;;;7.80;99.90;;;;;;5139588;27;20087;-74
2022/05/04 01:56:42;;;;;;;4.60;1.20;;;7.80;99.90;;;;;;5148240;27;20030;-74
2022/05/04 01:59:07;;;;;;;4.43;1.42;;;7.80;99.90;;;;;;5136898;27;20043;-74
2022/05/04 02:01:34;;;;;;;3.80;1.40;;;7.70;99.90;;;;;;5131331;27;20050;-74
2022/05/04 02:04:00;;;;;;;2.65;1.10;;;7.80;99.90;;;;;;5129382;27;20047;-74
2022/05/04 02:06:27;;;;;;;3.20;1.08;;;7.80;99.90;;;;;;5132945;27;20047;-73
2022/05/04 02:08:53;;;;;;;5.93;1.30;;;7.70;99.90;;;;;;5131288;27;20047;-74
2022/05/04 02:11:18;;;;;;;2.45;1.15;;;7.70;99.90;;;;;;5149789;27;20055;-74
2022/05/04 02:13:44;;;;;;;3.30;1.00;;;7.70;99.90;;;;;;5145914;27;20049;-73
2022/05/04 02:16:10;;;;;;;1.77;0.70;;;7.70;99.90;;;;;;5150368;27;20043;-73
2022/05/04 02:18:36;;;;;;;1.90;0.70;;;7.70;99.90;;;;;;5145782;27;20470;-73
2022/05/04 02:21:01;;;;;;;3.00;0.80;;;7.70;99.90;;;;;;5146190;27;20027;-73
2022/05/04 02:23:27;;;;;;;1.95;0.60;;;7.70;99.90;;;;;;5143980;27;20045;-73
2022/05/04 02:25:53;;;;;;;3.40;1.40;;;7.70;99.90;;;;;;5143602;27;20074;-73
2022/05/04 02:28:19;;;;;;;2.55;0.90;;;7.70;99.90;;;;;;5114621;27;20094;-73
2022/05/04 02:30:44;;;;;;;1.80;0.80;;;7.70;99.90;;;;;;5143621;27;20047;-73
2022/05/04 02:33:13;;;;;;;4.97;1.02;;;7.70;99.90;;;;;;5147434;27;20050;-74
2022/05/04 02:38:23;;;;;;;1.95;0.77;;;7.70;99.90;;;;;;5149195;27;20462;-73
2022/05/04 02:40:48;;;;;;;2.65;1.20;;;7.70;99.90;;;;;;5139175;27;20070;-73
2022/05/04 02:43:14;;;;;;;3.10;1.02;;;7.70;99.90;;;;;;5118301;27;20047;-73
2022/05/04 02:45:40;;;;;;;2.85;0.90;;;7.70;99.90;;;;;;5144265;27;20130;-73
2022/05/04 02:48:07;;;;;;;3.08;0.98;;;7.70;99.90;;;;;;5138930;27;20042;-72
2022/05/04 02:50:34;;;;;;;1.92;0.70;;;7.70;99.90;;;;;;5127433;27;20438;-73
2022/05/04 02:53:00;;;;;;;1.27;0.70;;;7.70;99.90;;;;;;5149545;27;20057;-73
2022/05/04 02:55:26;;;;;;;1.73;0.75;;;7.70;99.90;;;;;;5145066;27;20476;-72
2022/05/04 02:57:52;;;;;;;1.52;0.50;;;7.70;99.90;;;;;;5142215;27;20043;-73
2022/05/04 03:00:18;;;;;;;1.17;0.38;;;7.70;99.90;;;;;;5140038;27;20027;-73
2022/05/04 03:02:44;;;;;;;;;;;7.70;99.90;;;;;;5140364;27;20047;-74
2022/05/04 03:05:14;;;;;;;2.95;0.75;;;7.70;99.90;;;;;;5133134;27;19919;-74
2022/05/04 03:07:40;;;;;;;1.15;0.50;;;7.70;99.90;;;;;;5112759;27;20545;-75
2022/05/04 03:10:06;;;;;;;;;;;7.70;99.90;;;;;;5135460;27;20107;-76
2022/05/04 03:12:32;;;;;;;1.38;0.60;;;7.70;99.90;;;;;;5133363;27;19919;-75
2022/05/04 03:14:58;;;;;;;2.42;1.27;;;7.70;99.90;;;;;;5140517;27;20038;-75
2022/05/04 03:17:24;;;;;;;3.05;1.27;;;7.70;99.90;;;;;;5153469;27;20047;-75
2022/05/04 03:19:50;;;;;;;4.32;1.48;;;7.70;99.90;;;;;;5137410;27;20078;-75
2022/05/04 03:22:16;;;;;;;5.78;1.45;;;7.70;99.90;;;;;;5147739;27;20081;-75
2022/05/04 03:24:42;;;;;;;4.38;1.38;;;7.70;99.90;;;;;;5148259;27;20145;-75
2022/05/04 03:27:08;;;;;;;3.78;0.80;;;7.70;99.90;;;;;;5130942;27;20043;-75
2022/05/04 03:29:34;;;;;;;2.83;0.80;;;7.70;99.90;;;;;;5125601;27;20428;-75
2022/05/04 03:32:00;;;;;;;1.48;0.60;;;7.70;99.90;;;;;;5140002;27;20035;-75
2022/05/04 03:34:25;;;;;;;2.97;0.70;;;7.70;99.90;;;;;;5154278;27;20470;-76
2022/05/04 03:36:52;;;;;;;1.85;0.73;;;7.70;99.90;;;;;;5140988;27;20046;-75
2022/05/04 03:39:18;;;;;;;1.80;0.55;;;7.70;99.90;;;;;;5153907;27;20047;-75
2022/05/04 03:41:44;;;;;;;1.52;0.60;;;7.70;99.90;;;;;;5153882;27;20050;-75
2022/05/04 03:44:10;;;;;;;2.78;0.63;;;7.60;99.90;;;;;;5136198;27;20053;-74
2022/05/04 03:46:45;;;;;;;0.98;0.40;;;7.60;99.90;;;;;;5151519;27;20077;-76
2022/05/04 03:49:12;;;;;;;1.60;0.60;;;7.60;99.90;;;;;;5132648;27;20125;-75
2022/05/04 03:51:39;;;;;;;3.60;0.88;;;7.70;99.90;;;;;;5152859;27;20179;-76
2022/05/04 03:54:04;;;;;;;;;;;7.60;99.90;;;;;;5134101;27;20031;-76
2022/05/04 03:56:30;;;;;;;2.80;0.93;;;7.70;99.90;;;;;;5130400;27;20013;-76
2022/05/04 03:58:56;;;;;;;2.28;0.73;;;7.60;99.90;;;;;;5131992;27;20066;-75
2022/05/04 04:01:22;;;;;;;1.80;0.85;;;7.60;99.90;;;;;;5139278;27;20046;-75
2022/05/04 04:03:48;;;;;;;3.92;1.10;;;7.60;99.90;;;;;;5135572;27;20130;-75
2022/05/04 04:06:13;;;;;;;3.35;1.15;;;7.60;99.90;;;;;;5132048;27;20118;-76
2022/05/04 04:08:39;;;;;;;2.28;0.90;;;7.60;99.90;;;;;;5131121;27;20038;-76
2022/05/04 04:11:06;;;;;;;2.15;0.90;;;7.60;99.90;;;;;;5145619;27;20119;-75
2022/05/04 04:13:32;;;;;;;5.82;1.52;;;7.60;99.90;;;;;;5146887;27;20039;-76
2022/05/04 04:15:57;;;;;;;2.97;1.27;;;7.50;99.90;;;;;;5143728;27;20364;-75
2022/05/04 04:18:25;;;;;;;3.83;1.30;;;7.60;99.90;;;;;;5140137;27;20458;-75
2022/05/04 04:23:36;;;;;;;5.45;1.10;;;7.60;99.90;;;;;;5133997;27;20053;-75
2022/05/04 04:26:04;;;;;;;3.53;1.00;;;7.60;99.90;;;;;;5139223;27;20545;-76
2022/05/04 04:28:31;;;;;;;2.78;1.08;;;7.60;99.90;;;;;;5149055;27;20070;-75
2022/05/04 04:30:57;;;;;;;2.50;0.90;;;7.60;99.90;;;;;;5137348;27;20103;-76
2022/05/04 04:33:26;;;;;;;1.65;0.80;;;7.60;99.90;;;;;;5150823;27;20431;-77
2022/05/04 04:35:53;;;;;;;2.67;0.90;;;7.70;99.90;;;;;;5149615;27;20126;-76
2022/05/04 04:38:19;;;;;;;1.70;0.70;;;7.70;99.90;;;;;;5130456;28;20085;-76
2022/05/04 04:40:45;;;;;;;2.05;0.77;;;7.70;99.90;;;;;;5136321;27;20035;-76
2022/05/04 04:43:11;;;;;;;2.03;0.50;;;7.70;99.90;;;;;;5145187;27;20039;-75
2022/05/04 04:45:37;;;;;;;2.92;0.88;;;7.70;99.90;;;;;;5151190;27;20038;-75
2022/05/04 04:48:03;;;;;;;4.10;1.00;;;7.70;99.90;;;;;;5152084;27;20051;-75
2022/05/04 04:50:28;;;;;;;3.10;1.00;;;7.80;99.90;;;;;;5140745;27;20087;-77
2022/05/04 04:52:54;;;;;;;4.70;1.00;;;7.80;99.90;;;;;;5121746;27;20088;-75
2022/05/04 04:55:20;;;;;;;5.38;1.27;;;7.80;99.90;;;;;;5133850;27;20494;-75
2022/05/04 04:57:45;;;;;;;3.35;1.00;;;7.80;99.90;;;;;;5135454;27;20137;-75
2022/05/04 05:00:12;;;;;;;1.85;0.80;;;7.80;99.90;;;;;;5146573;27;20133;-75
2022/05/04 05:02:37;;;;;;;2.22;0.75;;;7.80;99.90;;;;;;5130279;27;20374;-75
2022/05/04 05:05:04;;;;;;;1.77;0.68;;;7.80;99.90;;;;;;5115212;27;20061;-75
2022/05/04 05:07:30;;;;;;;1.70;0.60;;;7.80;99.90;;;;;;5134627;27;20370;-75
2022/05/04 05:09:56;;;;;;;1.27;0.50;;;7.90;99.90;;;;;;5145955;27;20035;-76
2022/05/04 05:12:23;;;;;;;1.83;0.50;;;7.90;99.90;;;;;;5119591;27;20058;-76
2022/05/04 05:17:33;;;;;;;2.72;0.77;;;8.00;99.90;;;;;;5132655;27;19915;-75
2022/05/04 05:20:00;;;;;;;1.90;0.65;;;8.00;99.90;;;;;;5132665;27;20593;-75
2022/05/04 05:22:26;;;;;;;1.02;0.60;;;8.00;99.90;;;;;;5135180;27;20039;-75
2022/05/04 05:24:52;;;;;;;2.05;0.70;;;8.00;99.90;;;;;;5136201;27;20140;-75
2022/05/04 05:27:17;;;;;;;6.88;1.10;;;8.00;99.90;;;;;;5132471;27;20096;-75
2022/05/04 05:29:43;;;;;;;2.38;0.73;;;8.00;99.90;;;;;;5134391;27;20501;-73
2022/05/04 05:32:09;;;;;;;3.60;1.00;;;8.10;99.90;;;;;;5140662;27;20074;-73
2022/05/04 05:34:35;;;;;;;2.78;0.88;;;8.10;99.90;;;;;;5136068;27;20081;-74
2022/05/04 05:37:01;;;;;;;2.30;0.80;;;8.10;99.90;;;;;;5131735;27;20071;-75
2022/05/04 05:39:27;;;;;;;1.38;0.60;;;8.10;99.90;;;;;;5149066;27;20039;-74
2022/05/04 05:41:53;;;;;;;1.33;0.60;;;8.10;99.90;;;;;;5137220;27;20382;-74
2022/05/04 05:44:19;;;;;;;2.22;0.70;;;8.20;99.90;;;;;;5132707;27;20042;-75
2022/05/04 05:46:44;;;;;;;2.50;0.63;;;8.20;99.90;;;;;;5139183;27;20855;-74
2022/05/04 05:49:10;;;;;;;2.72;1.02;;;8.20;99.90;;;;;;5137484;27;20096;-75
2022/05/04 05:51:36;;;;;;;3.38;0.88;;;8.20;99.90;;;;;;5125652;27;20042;-75
2022/05/04 05:54:01;;;;;;;2.60;0.60;;;8.30;99.90;;;;;;5135833;27;20497;-75
2022/05/04 05:56:27;;;;;;;1.17;0.60;;;8.30;99.90;;;;;;5131855;27;20043;-75
2022/05/04 05:58:53;;;;;;;6.15;1.20;;;8.30;99.90;;;;;;5133946;27;20052;-75
2022/05/04 06:01:18;;;;;;;2.85;1.00;;;8.30;99.90;;;;;;5142980;27;20047;-75
2022/05/04 06:03:44;;;;;;;2.20;0.85;;;8.30;99.90;;;;;;5136397;27;20055;-76
2022/05/04 06:06:10;;;;;;;4.47;1.20;;;8.30;99.90;;;;;;5134621;27;20052;-76
2022/05/04 06:08:35;;;;;;;2.72;1.10;;;8.40;99.90;;;;;;5132827;27;20073;-76
2022/05/04 06:11:01;;;;;;;2.65;1.00;;;8.40;99.90;;;;;;5132745;27;20066;-76
2022/05/04 06:13:27;;;;;;;3.08;1.02;;;8.40;99.90;;;;;;5148808;27;20092;-77
2022/05/04 06:15:53;;;;;;;2.00;0.73;;;8.50;99.90;;;;;;5132000;27;20047;-77
2022/05/04 06:18:18;;;;;;;2.40;0.98;;;8.50;99.90;;;;;;5131979;27;20054;-76
2022/05/04 06:20:44;;;;;;;2.50;1.00;;;8.50;99.90;;;;;;5132037;27;20063;-76
2022/05/04 06:23:10;;;;;;;3.65;1.20;;;8.60;99.90;;;;;;5115431;27;20486;-76
2022/05/04 06:25:36;;;;;;;3.75;1.05;;;8.60;99.90;;;;;;5132045;27;20055;-76
2022/05/04 06:28:03;;;;;;;4.53;1.48;;;8.60;99.90;;;;;;5146461;27;20054;-76
2022/05/04 06:35:57;;;;;;;4.93;1.45;;;8.60;99.90;;;;;;5137471;27;20053;-76
2022/05/04 06:38:23;;;;;;;3.25;1.10;;;8.60;99.90;;;;;;5153810;27;20042;-76
2022/05/04 06:40:49;;;;;;;2.67;1.00;;;8.70;99.90;;;;;;5152288;27;20094;-76
2022/05/04 06:43:15;;;;;;;4.55;1.10;;;8.60;99.90;;;;;;5152175;27;20074;-76
2022/05/04 06:45:41;;;;;;;1.52;0.73;;;8.70;99.90;;;;;;5151993;27;20107;-75
2022/05/04 06:48:07;;;;;;;2.95;1.00;;;8.80;99.90;;;;;;5151843;27;20046;-77
2022/05/04 06:50:33;;;;;;;3.05;1.00;;;8.80;99.90;;;;;;5153516;27;20034;-76
2022/05/04 06:52:59;;;;;;;3.83;1.27;;;8.80;99.90;;;;;;5152540;27;20366;-78
2022/05/04 06:55:25;;;;;;;3.63;1.20;;;8.90;99.90;;;;;;5152845;27;20502;-77
2022/05/04 06:57:50;;;;;;;4.55;1.20;;;9.00;99.90;;;;;;5134833;27;20138;-76
2022/05/04 07:00:16;;;;;;;2.92;0.88;;;9.00;99.90;;;;;;5152031;27;20042;-76
2022/05/04 07:02:42;;;;;;;1.95;0.70;;;9.20;99.90;;;;;;5151909;27;20046;-76
2022/05/04 07:05:08;;;;;;;1.45;0.80;;;9.30;99.90;;;;;;5152417;27;20079;-76
2022/05/04 07:07:34;;;;;;;2.72;1.00;;;9.40;99.90;;;;;;5152356;27;20043;-76
2022/05/04 07:10:00;;;;;;;2.78;0.80;;;9.40;99.90;;;;;;5152258;27;20066;-76
2022/05/04 07:12:26;;;;;;;4.05;1.20;;;9.40;99.90;;;;;;5152378;27;20363;-76
2022/05/04 07:14:53;;;;;;;3.35;0.80;;;9.40;99.90;;;;;;5151850;27;20122;-76
2022/05/04 07:17:19;;;;;;;1.25;0.60;;;9.50;99.90;;;;;;5134793;27;20330;-76
2022/05/04 07:19:46;;;;;;;2.42;0.95;;;9.60;99.90;;;;;;5153495;27;20046;-75
2022/05/04 07:22:15;;;;;;;2.10;0.80;;;9.70;99.90;;;;;;5153022;27;20366;-75
2022/05/04 07:24:41;;;;;;;3.35;1.00;;;9.80;99.90;;;;;;5133871;27;20095;-75
2022/05/04 07:27:06;;;;;;;3.17;0.95;;;9.70;99.90;;;;;;5151222;27;20168;-75
2022/05/04 07:29:36;;;;;;;1.67;0.80;;;9.70;99.80;;;;;;5151675;27;20039;-75
2022/05/04 07:32:02;;;;;;;2.53;0.90;;;9.70;99.90;;;;;;5134347;27;20035;-75
2022/05/04 07:34:29;;;;;;;4.07;1.20;;;9.80;99.90;;;;;;5152201;27;20067;-75
2022/05/04 07:36:57;;;;;;;3.15;1.30;;;9.70;99.90;;;;;;5134561;27;20125;-75
2022/05/04 07:42:22;;;;;;;2.25;0.90;;;9.60;99.90;;;;;;5151377;27;20756;-75
2022/05/04 07:45:05;;;;;;;7.63;1.33;;;9.60;99.90;;;;;;5152479;27;20041;-75
2022/05/04 07:47:34;;;;;;;3.72;1.00;;;9.60;99.70;;;;;;5133488;27;20081;-75
2022/05/04 07:50:00;;;;;;;4.82;1.08;;;9.70;99.60;;;;;;5134263;27;20446;-75
2022/05/04 07:52:26;;;;;;;3.45;1.00;;;9.70;99.90;;;;;;5150829;27;20030;-75
2022/05/04 07:54:52;;;;;;;3.50;1.00;;;10.00;99.90;;;;;;5134011;27;20118;-74
2022/05/04 07:57:19;;;;;;;3.17;1.10;;;10.10;99.90;;;;;;5133987;27;20133;-74
2022/05/04 08:05:14;;;;;;;3.53;0.98;;;11.20;97.60;;;;;;5150630;27;20079;-75
2022/05/04 08:07:40;;;;;;;3.65;1.10;;;11.20;96.30;;;;;;5152078;27;20047;-74
2022/05/04 08:10:06;;;;;;;3.47;1.23;;;11.00;96.20;;;;;;5150862;27;20411;-74
2022/05/04 08:12:33;;;;;;;2.58;1.00;;;10.70;95.40;;;;;;5150692;27;20477;-75
2022/05/04 08:14:59;;;;;;;2.38;0.90;;;10.90;96.30;;;;;;5133325;27;20062;-75
2022/05/04 08:17:25;;;;;;;2.95;1.05;;;11.00;97.50;;;;;;5150516;27;20405;-75
2022/05/04 08:19:52;;;;;;;4.10;1.13;;;11.00;96.90;;;;;;5133082;27;20121;-75
2022/05/04 08:22:17;;;;;;;3.10;1.02;;;10.80;96.80;;;;;;5150473;27;20047;-75
2022/05/04 08:24:43;;;;;;;6.25;1.60;;;10.70;96.80;;;;;;5150712;27;20039;-75
2022/05/04 08:27:09;;;;;;;5.00;1.35;;;10.30;97.70;;;;;;5151970;27;20488;-75
2022/05/04 08:29:35;;;;;;;3.58;1.48;;;10.30;98.40;;;;;;5150340;27;20038;-75
2022/05/04 08:32:01;;;;;;;3.88;1.20;;;10.30;98.10;;;;;;5151987;27;20183;-73
2022/05/04 08:34:26;;;;;;;4.63;1.65;;;10.20;98.60;;;;;;5152093;27;20509;-74
2022/05/04 08:36:52;;;;;;;4.25;1.27;;;10.20;98.40;;;;;;5155718;27;20045;-74
2022/05/04 08:39:18;;;;;;;3.75;1.20;;;10.10;99.60;;;;;;5137782;27;20370;-74
2022/05/04 08:41:44;;;;;;;6.47;1.42;;;10.10;98.90;;;;;;5137643;27;20369;-75
2022/05/04 08:44:11;;;;;;;4.03;1.20;;;10.30;99.80;;;;;;5137778;27;20061;-73
2022/05/04 08:46:40;;;;;;;5.38;1.50;;;10.40;98.80;;;;;;5154127;27;20056;-75
2022/05/04 08:49:06;;;;;;;4.57;1.27;;;10.30;98.10;;;;;;5154572;27;20058;-75
2022/05/04 08:51:34;;;;;;;4.53;1.60;;;10.40;98.30;;;;;;5137427;27;20039;-74
2022/05/04 08:54:00;;;;;;;5.70;1.65;;;10.60;98.70;;;;;;5155948;27;20077;-74
2022/05/04 08:56:26;;;;;;;3.65;1.20;;;10.60;98.50;;;;;;5154312;27;20078;-74
2022/05/04 08:58:52;;;;;;;1.95;0.80;;;10.70;99.00;;;;;;5154672;27;20074;-74
2022/05/04 09:01:18;;;;;;;5.10;1.35;;;10.80;98.20;;;;;;5154288;27;20454;-74
2022/05/04 09:03:43;;;;;;;5.68;1.70;;;10.90;99.10;;;;;;5155601;27;20038;-75
2022/05/04 09:06:09;;;;;;;3.80;1.17;;;10.60;98.20;;;;;;5154428;27;20439;-74
2022/05/04 09:08:53;;;;;;;5.90;1.45;;;10.50;99.10;;;;;;5154501;27;20039;-74
2022/05/04 09:11:23;;;;;;;3.15;1.00;;;10.60;99.20;;;;;;5154246;27;20050;-74
2022/05/04 09:13:50;;;;;;;4.45;1.23;;;10.60;98.00;;;;;;5155222;27;20034;-75
2022/05/04 09:16:31;;;;;;;3.78;1.60;;;10.60;98.80;;;;;;5154204;27;20047;-74
2022/05/04 09:19:10;;;;;;;4.53;1.35;;;10.40;98.20;;;;;;5155563;27;20042;-74
2022/05/04 09:21:37;;;;;;;2.88;0.85;;;10.50;99.00;;;;;;5136809;27;20046;-74
2022/05/04 09:24:02;;;;;;;;;;;10.80;99.50;;;;;;5156127;27;20486;-74
2022/05/04 09:26:28;;;;;;;5.72;1.15;;;10.70;98.20;;;;;;5154120;27;19921;-74
2022/05/04 09:29:02;;;;;;;3.63;0.95;;;10.80;98.10;;;;;;5137019;27;20043;-74
2022/05/04 09:31:30;;;;;;;4.85;1.48;;;11.10;99.20;;;;;;5154275;27;20027;-75
2022/05/04 09:34:02;;;;;;;2.50;1.00;;;11.30;99.10;;;;;;5153931;27;20338;-75
2022/05/04 09:45:08;;;;;;;4.68;1.40;;;11.50;98.90;;;;;;5153966;27;20386;-74
2022/05/04 09:47:43;;;;;;;3.28;1.25;;;11.50;97.70;;;;;;5152450;27;20057;-74
2022/05/04 09:50:10;;;;;;;2.95;1.13;;;11.20;96.50;;;;;;5153710;27;20115;-75
2022/05/04 09:52:44;;;;;;;3.80;1.30;;;11.20;97.10;;;;;;5153486;27;20118;-75
2022/05/04 09:55:19;;;;;;;3.65;1.33;;;11.20;97.90;;;;;;5153441;27;20038;-75
2022/05/04 09:57:46;;;;;;;4.93;1.48;;;11.20;97.40;;;;;;5154401;27;20501;-74
2022/05/04 10:00:14;;;;;;;3.22;1.00;;;11.20;96.30;;;;;;5153287;27;20390;-75
2022/05/04 10:02:42;;;;;;;3.47;1.00;;;11.40;95.80;;;;;;5154582;27;20112;-74
2022/05/04 10:05:09;;;;;;;2.72;1.10;;;11.60;95.70;;;;;;5154368;27;20407;-75
2022/05/04 10:07:36;;;;;;;2.67;1.40;;;11.70;94.90;;;;;;5135582;27;20142;-74
2022/05/04 10:10:04;;;;;;;3.97;1.00;;;11.70;96.90;;;;;;5154132;27;20093;-75
2022/05/04 10:12:30;;;;;;;3.50;0.98;;;11.70;95.80;;;;;;5135830;27;20081;-75
2022/05/04 10:14:58;;;;;;;7.38;1.48;;;11.90;96.00;;;;;;5135973;27;20078;-74
2022/05/04 10:17:26;;;;;;;4.28;1.30;;;11.70;95.50;;;;;;5152539;27;20057;-74
2022/05/04 10:19:56;;;;;;;3.65;1.35;;;11.70;95.70;;;;;;5154474;27;20050;-74
2022/05/04 10:22:36;;;;;;;3.75;1.10;;;12.00;95.90;;;;;;5152742;27;20047;-75
2022/05/04 10:25:05;;;;;;;3.22;1.00;;;12.00;94.00;;;;;;5152692;27;20047;-74
2022/05/04 10:27:30;;;;;;;3.83;1.40;;;12.20;95.50;;;;;;5152313;27;20125;-74
2022/05/04 10:32:47;;;;;;;4.60;1.15;;;12.80;93.80;;;;;;5152362;27;20203;-74
2022/05/04 10:35:27;;;;;;;3.15;0.90;;;13.60;92.90;;;;;;5152337;27;20158;-75
2022/05/04 10:37:58;;;;;;;2.55;1.10;;;13.90;92.60;;;;;;5153712;27;20421;-75
2022/05/04 10:40:31;;;;;;;3.58;1.10;;;13.60;92.50;;;;;;5152418;27;20129;-75
2022/05/04 10:42:59;;;;;;;4.80;1.23;;;13.20;92.40;;;;;;5153717;27;20093;-75
2022/05/04 10:45:35;;;;;;;2.85;1.00;;;12.90;93.20;;;;;;5151750;27;20043;-75
2022/05/04 10:48:09;;;;;;;4.47;1.40;;;12.80;92.70;;;;;;5152534;27;20385;-73
2022/05/04 10:51:02;;;;;;;3.28;1.20;;;12.80;92.80;;;;;;5153848;27;20056;-74
2022/05/04 10:53:28;;;;;;;6.57;1.60;;;13.50;92.60;;;;;;5153776;27;20041;-74
2022/05/04 10:56:03;;;;;;;5.95;1.80;;;14.00;91.50;;;;;;5152345;27;20493;-74
2022/05/04 10:58:52;;;;;;;2.78;1.30;;;14.00;90.70;;;;;;5152098;27;20054;-75
2022/05/04 11:01:33;;;;;;;3.05;1.13;;;14.80;90.30;;;;;;5152160;27;20054;-74
2022/05/04 11:04:14;;;;;;;3.35;1.30;;;15.40;89.70;;;;;;5153538;27;20041;-75
2022/05/04 11:07:05;;;;;;;3.15;1.15;;;15.90;90.00;;;;;;5151983;27;20055;-75
2022/05/04 11:09:39;;;;;;;3.13;1.30;;;16.30;85.60;;;;;;5139091;27;20489;-75
2022/05/04 11:12:07;;;;;;;5.85;1.42;;;16.60;84.00;;;;;;5152016;27;20074;-74
2022/05/04 11:14:34;;;;;;;5.72;1.40;;;16.50;84.40;;;;;;5153646;27;20095;-75
2022/05/04 11:17:02;;;;;;;5.18;1.42;;;16.10;82.40;;;;;;5152224;27;20054;-75
2022/05/04 11:19:32;;;;;;;3.53;1.38;;;14.60;83.70;;;;;;5153537;27;20049;-75
2022/05/04 11:21:58;;;;;;;6.05;1.40;;;13.90;88.50;;;;;;5151607;27;20035;-75
2022/05/04 11:24:28;;;;;;;6.15;1.90;;;13.50;89.80;;;;;;5151328;27;20049;-74
2022/05/04 11:26:55;;;;;;;4.47;1.50;;;12.60;92.00;;;;;;5134059;27;20046;-75
2022/05/04 11:29:25;;;;;;;3.20;1.25;;;12.60;92.80;;;;;;5134433;27;20133;-75
2022/05/04 11:32:01;;;;;;;3.65;1.30;;;13.10;93.10;;;;;;5134398;27;20053;-74
2022/05/04 11:34:37;;;;;;;5.20;1.50;;;13.60;92.90;;;;;;5151780;27;20043;-75
2022/05/04 11:37:08;;;;;;;3.50;1.23;;;13.60;90.60;;;;;;5151845;27;20054;-75
2022/05/04 11:39:35;;;;;;;4.15;1.42;;;13.80;90.50;;;;;;5151514;27;20389;-74
2022/05/04 11:42:03;;;;;;;4.30;1.33;;;14.10;90.80;;;;;;5151413;27;20476;-74
2022/05/04 11:44:30;;;;;;;2.80;1.10;;;14.30;88.80;;;;;;5151558;27;20046;-74
2022/05/04 11:46:58;;;;;;;2.83;1.02;;;14.50;89.70;;;;;;5151442;27;20059;-74
2022/05/04 11:49:26;;;;;;;3.65;1.20;;;14.70;90.20;;;;;;5152013;27;20050;-74
2022/05/04 11:51:53;;;;;;;3.40;1.35;;;15.10;90.40;;;;;;5152743;27;20122;-73
2022/05/04 11:54:20;;;;;;;2.92;1.17;;;15.50;88.90;;;;;;5152755;27;20569;-73
2022/05/04 11:56:46;;;;;;;3.35;1.15;;;15.70;89.40;;;;;;5152540;27;20051;-74
2022/05/04 11:59:11;;;;;;;3.17;1.08;;;16.00;86.00;;;;;;5152112;27;20039;-74
2022/05/04 12:01:38;;;;;;;2.42;1.25;;;16.20;87.90;;;;;;5133959;27;20050;-75
2022/05/04 12:04:05;;;;;;;3.15;1.42;;;15.70;82.00;;;;;;5151038;27;20050;-75
2022/05/04 12:06:32;;;;;;;3.67;1.30;;;16.00;85.50;;;;;;5152673;27;20160;-74
2022/05/04 12:08:59;;;;;;;4.35;1.08;;;16.20;84.80;;;;;;5150923;27;20049;-74
2022/05/04 12:11:25;;;;;;;5.43;1.80;;;16.40;83.50;;;;;;5152246;27;20393;-74
2022/05/04 12:13:52;;;;;;;4.95;1.70;;;15.60;81.10;;;;;;5152533;27;20038;-74
2022/05/04 12:16:19;;;;;;;3.67;1.35;;;15.30;86.00;;;;;;5151100;27;20431;-74
2022/05/04 12:18:47;;;;;;;3.63;1.30;;;15.10;84.50;;;;;;5150807;27;20046;-75
2022/05/04 12:21:21;;;;;;;5.07;1.50;;;15.20;84.10;;;;;;5151925;27;20065;-76
2022/05/04 12:23:52;;;;;;;3.20;1.40;;;15.60;85.90;;;;;;5153449;27;20039;-76
2022/05/04 12:26:19;;;;;;;3.55;1.30;;;15.50;84.70;;;;;;5152787;27;20060;-76
2022/05/04 12:34:16;;;;;;;3.65;1.50;;;15.00;85.90;;;;;;5137338;27;20134;-75
2022/05/04 12:36:45;;;;;;;2.60;1.17;;;15.20;86.50;;;;;;5153697;27;20513;-76
2022/05/04 12:39:11;;;;;;;3.97;1.35;;;15.20;84.10;;;;;;5134688;27;20053;-76
2022/05/04 12:41:37;;;;;;;4.15;1.50;;;15.10;85.80;;;;;;5134483;27;20057;-76
2022/05/04 12:44:06;;;;;;;3.80;1.27;;;15.30;84.60;;;;;;5152253;27;20574;-75
2022/05/04 12:46:32;;;;;;;4.10;1.45;;;15.70;87.30;;;;;;5133842;27;20055;-76
2022/05/04 12:48:58;;;;;;;2.90;1.30;;;15.90;85.70;;;;;;5152673;27;20133;-76
2022/05/04 12:51:25;;;;;;;3.53;1.42;;;15.90;84.20;;;;;;5151286;27;20081;-76
2022/05/04 12:53:51;;;;;;;4.38;1.52;;;16.20;82.50;;;;;;5151481;27;20138;-76
2022/05/04 12:59:02;;;;;;;4.55;1.40;;;16.10;84.50;;;;;;5152938;27;20346;-76
2022/05/04 13:01:30;;;;;;;3.97;1.58;;;16.00;83.90;;;;;;5151500;27;20050;-77
2022/05/04 13:03:56;;;;;;;5.50;1.65;;;15.90;84.50;;;;;;5151987;27;20151;-75
2022/05/04 13:06:22;;;;;;;4.40;1.67;;;15.40;85.60;;;;;;5134081;27;20499;-76
2022/05/04 13:08:48;;;;;;;6.25;1.92;;;15.70;87.40;;;;;;5152844;27;20080;-76
2022/05/04 13:11:15;;;;;;;4.95;1.75;;;15.90;85.50;;;;;;5151410;27;20054;-76
2022/05/04 13:13:41;;;;;;;4.10;1.60;;;15.50;84.60;;;;;;5151957;27;20039;-76
2022/05/04 13:16:07;;;;;;;5.68;1.95;;;15.70;86.70;;;;;;5153611;27;20038;-75
2022/05/04 13:18:32;;;;;;;4.03;1.40;;;15.70;86.10;;;;;;5152285;27;20485;-75
2022/05/04 13:20:58;;;;;;;4.60;1.58;;;16.10;85.20;;;;;;5153815;27;20370;-76
2022/05/04 13:23:24;;;;;;;3.10;1.30;;;15.90;84.00;;;;;;5154303;27;20118;-75
2022/05/04 13:25:50;;;;;;;4.05;1.55;;;16.40;84.10;;;;;;5155005;27;20086;-75
2022/05/04 13:28:15;;;;;;;4.47;1.65;;;16.30;84.50;;;;;;5144584;27;20039;-75
2022/05/04 13:30:41;;;;;;;5.60;1.60;;;16.00;83.60;;;;;;5134382;27;20043;-75
2022/05/04 13:33:07;;;;;;;5.60;1.88;;;16.20;84.60;;;;;;5117826;27;20454;-75
2022/05/04 13:35:33;;;;;;;5.28;1.83;;;15.90;83.40;;;;;;5135907;27;20038;-76
2022/05/04 13:37:59;;;;;;;4.68;1.45;;;15.80;84.30;;;;;;5118525;27;20426;-75
2022/05/04 13:40:25;;;;;;;4.63;1.60;;;15.70;83.20;;;;;;5134690;27;20043;-76